Historique des stations

Station météo de Mainvilliers

Altitude de la station : 298 m







Données météorologiques pour le 06/03/2021
Date
Heure
Températures Humidité Point de rosée Vitesse
du vent
Direction Rafales Windchill Pression Pluviométrie
Cumul
Date
Heure
Températures Humidité Point de rosée Vitesse
du vent
Direction Rafales Windchill Pression Pluviométrie
Cumul
06/03/2021 12:277.0 °C42 %-5.0 °C24 km/hNNE35 km/h2.8 1029 hPa-
06/03/2021 12:126.7 °C43 %-5.0 °C11 km/hNNE35 km/h4.4 1030 hPa-
06/03/2021 12:006.5 °C46 %-4.4 °C18 km/hNE35 km/h3.3 1030 hPa-
06/03/2021 11:426.3 °C48 %-3.9 °C10 km/hNE32 km/h3.9 1030 hPa-
06/03/2021 11:276.2 °C52 %-3.3 °C5 km/hNNE31 km/h5.6 1030 hPa-
06/03/2021 11:125.4 °C55 %-3.3 °C8 km/hENE31 km/h3.3 1030 hPa-
06/03/2021 11:005.2 °C58 %-2.8 °C8 km/hN31 km/h2.8 1030 hPa-
06/03/2021 10:425.0 °C59 %-2.8 °C13 km/hNNE31 km/h1.7 1030 hPa-
06/03/2021 10:224.3 °C62 %-2.8 °C23 km/hNE27 km/h0.0 1030 hPa-
06/03/2021 10:124.2 °C63 %-2.2 °C10 km/hNE27 km/h2.2 1030 hPa-
06/03/2021 10:003.7 °C64 %-2.8 °C16 km/hNNE27 km/h0.6 1030 hPa-
06/03/2021 09:433.3 °C66 %-2.8 °C14 km/hENE27 km/h0.0 1030 hPa-
06/03/2021 09:282.7 °C69 %-2.8 °C14 km/hNE26 km/h-0.6 1030 hPa-
06/03/2021 09:132.1 °C71 %-2.8 °C6 km/hNE24 km/h0.6 1030 hPa-
06/03/2021 09:001.7 °C74 %-2.2 °C5 km/hNNE23 km/h0.6 1030 hPa-
06/03/2021 08:431.1 °C76 %-2.8 °C5 km/hNE19 km/h0.0 1030 hPa-
06/03/2021 08:28-0.2 °C79 %-3.3 °C8 km/hNNO19 km/h-2.8 1030 hPa-
06/03/2021 08:13-0.4 °C80 %-3.3 °C10 km/hNNO19 km/h-3.3 1030 hPa-
06/03/2021 08:00-0.7 °C80 %-3.9 °C5 km/hN19 km/h-1.7 1029 hPa-
06/03/2021 07:43-0.9 °C81 %-3.9 °C6 km/hN19 km/h-3.3 1029 hPa-
06/03/2021 07:28-0.9 °C80 %-3.9 °C5 km/hN19 km/h-2.8 1029 hPa-
06/03/2021 07:13-0.9 °C81 %-3.9 °C6 km/hN19 km/h-3.3 1029 hPa-
06/03/2021 07:00-0.9 °C80 %-3.9 °C10 km/hN19 km/h-4.4 1029 hPa-
06/03/2021 06:43-0.8 °C80 %-3.9 °C5 km/hNNE19 km/h-1.7 1029 hPa-
06/03/2021 06:28-0.7 °C80 %-3.9 °C6 km/hN19 km/h-2.2 1029 hPa-
06/03/2021 06:13-0.8 °C79 %-3.9 °C8 km/hN19 km/h-3.3 1029 hPa-
06/03/2021 06:00-0.6 °C78 %-3.9 °C6 km/hNNE19 km/h-2.2 1029 hPa-
06/03/2021 05:45-0.7 °C78 %-3.9 °C6 km/hNNO19 km/h-2.2 1029 hPa-
06/03/2021 05:28-0.4 °C78 %-3.9 °C6 km/hN19 km/h-2.2 1029 hPa-
06/03/2021 05:13-0.6 °C77 %-3.9 °C13 km/hN19 km/h-3.9 1029 hPa-
06/03/2021 05:00-0.5 °C77 %-3.9 °C13 km/hN19 km/h-3.9 1029 hPa-
06/03/2021 04:43-0.4 °C77 %-3.9 °C6 km/hNNE19 km/h-2.2 1029 hPa-
06/03/2021 04:28-0.3 °C76 %-3.9 °C6 km/hN19 km/h-2.2 1029 hPa-
06/03/2021 04:13-0.3 °C75 %-4.4 °C10 km/hN19 km/h-2.8 1029 hPa-
06/03/2021 04:00-0.2 °C75 %-3.9 °C8 km/hN19 km/h-2.8 1029 hPa-
06/03/2021 03:43-0.1 °C74 %-4.4 °C10 km/hN19 km/h-2.8 1029 hPa-
06/03/2021 03:280.1 °C74 %-3.9 °C5 km/hNNE19 km/h-1.1 1029 hPa-
06/03/2021 03:13-0.1 °C74 %-3.9 °C6 km/hNE19 km/h-1.7 1029 hPa-
06/03/2021 03:000.1 °C74 %-3.9 °C6 km/hNNO19 km/h-1.7 1029 hPa-
06/03/2021 02:430.4 °C73 %-3.9 °C8 km/hN19 km/h-2.2 1029 hPa-
06/03/2021 02:280.4 °C72 %-3.9 °C6 km/hN19 km/h-1.1 1029 hPa-
06/03/2021 02:130.6 °C72 %-3.9 °C10 km/hNNO19 km/h-2.2 1029 hPa-
06/03/2021 02:000.8 °C71 %-3.9 °C13 km/hN19 km/h-2.8 1029 hPa-
06/03/2021 01:430.8 °C71 %-3.9 °C6 km/hN19 km/h-0.6 1029 hPa-
06/03/2021 01:281.1 °C70 %-3.9 °C11 km/hNNE19 km/h-1.7 1029 hPa-
06/03/2021 01:131.2 °C70 %-3.9 °C10 km/hN19 km/h-1.7 1029 hPa-
06/03/2021 01:001.4 °C70 %-3.3 °C6 km/hN19 km/h0.0 1029 hPa-
06/03/2021 00:431.8 °C69 %-3.3 °C5 km/hN19 km/h0.6 1029 hPa-
06/03/2021 00:272.3 °C68 %-3.3 °C6 km/hNNO19 km/h0.6 1029 hPa-
06/03/2021 00:122.9 °C66 %-2.8 °C10 km/hNNO18 km/h0.0 1029 hPa-
06/03/2021 00:003.7 °C64 %-2.8 °C3 km/hN3 km/h2.8 1029 hPa-


Minima :

Température : -0.9 °C
Humidité : 42 %
Point de rosée : -5.0 °C
Vent moyen : 3 km/h
Windchill : -4.4
Pression atm. : 1029 hPa
Maxima :

Température : 7.0 °C
Humidité : 81 %
Point de rosée : -2.2 °C
Vent moyen : 24 km/h
Windchill : 5.6
Pression atm. : 1030 hPa
Rafales max : 35 km/h
Cumul de pluie sur 24H : 0 mm

Mainvilliers est une commune du département Eure-et-Loir (28).
La station météorologique du réseau de l'association la plus proche de Mainvilliers est celle de Chaudon
Site du propriétaire de la station : http://meteo28300.fr/



Icône Facebook Association Météo Centre Icône Twitter Association Météo Centre Icône Chaîne Youtube Association Météo Centre Icône contact Association Météo Centre Icône Insta Association Météo Centre